createdAt,value
2023-09-11T00:00:13.170Z,12.55
2023-09-11T00:02:39.621Z,13.15
2023-09-11T00:05:06.445Z,12.15
2023-09-11T00:07:32.897Z,12.85
2023-09-11T00:09:59.475Z,12.38
2023-09-11T00:12:26.049Z,12.57
2023-09-11T00:14:52.529Z,14.57
2023-09-11T00:17:19.073Z,13.95
2023-09-11T00:19:45.468Z,12.52
2023-09-11T00:22:11.905Z,11.88
2023-09-11T00:24:39.229Z,12.07
2023-09-11T00:27:05.753Z,18.45
2023-09-11T00:29:32.243Z,14.30
2023-09-11T00:31:58.963Z,14.20
2023-09-11T00:34:25.477Z,12.73
2023-09-11T00:36:52.016Z,13.30
2023-09-11T00:39:18.468Z,11.73
2023-09-11T00:41:45.034Z,12.55
2023-09-11T00:44:11.667Z,12.68
2023-09-11T00:46:38.249Z,14.07
2023-09-11T00:49:05.473Z,14.20
2023-09-11T00:51:33.586Z,17.30
2023-09-11T00:54:00.215Z,12.63
2023-09-11T00:56:26.954Z,14.98
2023-09-11T00:58:53.690Z,13.48
2023-09-11T01:01:21.938Z,12.93
2023-09-11T01:03:48.822Z,12.95
2023-09-11T01:06:15.331Z,12.73
2023-09-11T01:08:42.176Z,16.88
2023-09-11T01:11:09.121Z,11.57
2023-09-11T01:13:35.974Z,13.15
2023-09-11T01:16:11.944Z,13.02
2023-09-11T01:19:03.435Z,12.43
2023-09-11T01:24:40.014Z,12.85
2023-09-11T01:27:44.421Z,14.35
2023-09-11T01:30:13.475Z,13.70
2023-09-11T01:32:41.306Z,12.75
2023-09-11T01:35:08.273Z,12.27
2023-09-11T01:37:34.780Z,17.92
2023-09-11T01:40:01.382Z,13.27
2023-09-11T01:42:33.452Z,14.80
2023-09-11T01:45:01.821Z,17.98
2023-09-11T01:47:29.712Z,14.80
2023-09-11T01:49:57.675Z,13.25
2023-09-11T01:52:25.998Z,15.70
2023-09-11T01:54:53.452Z,13.63
2023-09-11T01:57:20.143Z,13.85
2023-09-11T01:59:46.584Z,14.45
2023-09-11T02:02:13.238Z,14.48
2023-09-11T02:04:40.113Z,15.05
2023-09-11T02:07:06.595Z,14.15
2023-09-11T02:09:33.186Z,14.93
2023-09-11T02:11:59.685Z,15.77
2023-09-11T02:14:26.434Z,14.00
2023-09-11T02:16:52.905Z,15.60
2023-09-11T02:19:19.318Z,15.55
2023-09-11T02:21:45.844Z,13.38
2023-09-11T02:24:15.046Z,23.73
2023-09-11T02:26:41.566Z,13.98
2023-09-11T02:29:08.039Z,14.90
2023-09-11T02:31:34.583Z,15.70
2023-09-11T02:34:01.105Z,18.55
2023-09-11T02:36:27.532Z,16.35
2023-09-11T02:38:54.032Z,15.20
2023-09-11T02:41:20.787Z,15.52
2023-09-11T02:43:47.388Z,15.85
2023-09-11T02:46:14.039Z,19.42
2023-09-11T02:48:48.131Z,15.82
2023-09-11T02:51:15.485Z,19.45
2023-09-11T02:53:42.274Z,16.85
2023-09-11T02:56:08.808Z,24.55
2023-09-11T02:58:35.351Z,19.08
2023-09-11T03:01:04.274Z,20.33
2023-09-11T03:03:33.785Z,18.77
2023-09-11T03:06:01.769Z,19.63
2023-09-11T03:08:29.526Z,18.65
2023-09-11T03:11:04.965Z,19.08
2023-09-11T03:13:31.466Z,19.52
2023-09-11T03:16:10.693Z,19.67
2023-09-11T03:18:38.619Z,20.27
2023-09-11T03:21:07.088Z,19.90
2023-09-11T03:23:33.734Z,23.42
2023-09-11T03:26:00.652Z,23.02
2023-09-11T03:28:33.670Z,20.85
2023-09-11T03:31:04.065Z,20.38
2023-09-11T03:33:31.044Z,21.47
2023-09-11T03:36:01.746Z,19.95
2023-09-11T03:38:28.273Z,23.63
2023-09-11T03:40:54.895Z,21.45
2023-09-11T03:43:21.871Z,22.20
2023-09-11T03:45:50.060Z,20.48
2023-09-11T03:48:17.489Z,21.73
2023-09-11T03:50:44.049Z,23.20
2023-09-11T03:53:10.518Z,21.13
2023-09-11T03:55:37.593Z,23.08
2023-09-11T03:58:04.559Z,21.52
2023-09-11T04:00:31.011Z,20.30
2023-09-11T04:02:57.670Z,21.42
2023-09-11T04:05:24.192Z,22.85
2023-09-11T04:07:50.990Z,20.95
2023-09-11T04:10:17.834Z,23.20
2023-09-11T04:12:44.389Z,22.15
2023-09-11T04:15:10.993Z,21.45
2023-09-11T04:17:37.518Z,22.58
2023-09-11T04:20:04.579Z,22.52
2023-09-11T04:22:31.148Z,21.05
2023-09-11T04:24:57.796Z,21.27
2023-09-11T04:27:27.256Z,21.38
2023-09-11T04:29:53.798Z,21.65
2023-09-11T04:32:22.233Z,22.85
2023-09-11T04:34:49.161Z,21.92
2023-09-11T04:37:17.716Z,21.90
2023-09-11T04:39:44.365Z,21.50
2023-09-11T04:42:10.798Z,25.65
2023-09-11T04:44:37.532Z,22.77
2023-09-11T04:47:07.817Z,21.38
2023-09-11T04:49:34.496Z,20.85
2023-09-11T04:52:00.956Z,21.02
2023-09-11T04:54:27.372Z,21.70
2023-09-11T04:56:53.919Z,20.48
2023-09-11T04:59:20.456Z,21.38
2023-09-11T05:01:47.060Z,21.88
2023-09-11T05:04:13.693Z,22.63
2023-09-11T05:06:40.264Z,19.17
2023-09-11T05:09:12.653Z,19.30
2023-09-11T05:11:39.578Z,22.73
2023-09-11T05:14:06.210Z,20.23
2023-09-11T05:16:32.697Z,21.42
2023-09-11T05:18:59.178Z,21.25
2023-09-11T05:21:26.311Z,19.52
2023-09-11T05:23:52.802Z,20.50
2023-09-11T05:26:19.287Z,21.90
2023-09-11T05:28:45.767Z,23.15
2023-09-11T05:31:12.283Z,21.35
2023-09-11T05:33:38.772Z,19.15
2023-09-11T05:36:06.379Z,19.90
2023-09-11T05:38:33.021Z,20.38
2023-09-11T05:40:59.489Z,20.02
2023-09-11T05:43:29.037Z,20.13
2023-09-11T05:45:57.014Z,22.38
2023-09-11T05:48:25.050Z,20.10
2023-09-11T05:50:53.436Z,20.70
2023-09-11T05:53:19.955Z,27.83
2023-09-11T05:55:46.573Z,23.35
2023-09-11T05:58:13.119Z,19.48
2023-09-11T06:00:39.703Z,20.23
2023-09-11T06:03:06.330Z,27.92
2023-09-11T06:05:40.838Z,20.35
2023-09-11T06:08:07.912Z,20.25
2023-09-11T06:10:35.109Z,20.38
2023-09-11T06:13:02.895Z,20.38
2023-09-11T06:15:30.837Z,22.17
2023-09-11T06:17:57.639Z,20.88
2023-09-11T06:20:24.457Z,22.08
2023-09-11T06:22:52.004Z,19.98
2023-09-11T06:25:18.426Z,23.30
2023-09-11T06:27:44.913Z,21.83
2023-09-11T06:30:14.506Z,20.70
2023-09-11T06:32:41.102Z,20.38
2023-09-11T06:35:08.064Z,18.92
2023-09-11T06:37:34.684Z,19.30
2023-09-11T06:40:02.223Z,17.77
2023-09-11T06:42:28.804Z,17.08
2023-09-11T06:44:55.724Z,17.20
2023-09-11T06:47:22.554Z,16.55
2023-09-11T06:49:49.373Z,21.20
2023-09-11T06:52:17.521Z,18.15
2023-09-11T06:54:44.791Z,16.48
2023-09-11T06:57:11.576Z,31.92
2023-09-11T06:59:38.262Z,15.27
2023-09-11T07:02:05.177Z,18.10
2023-09-11T07:04:32.166Z,13.32
2023-09-11T07:06:58.800Z,14.73
2023-09-11T07:09:25.433Z,18.45
2023-09-11T07:11:52.435Z,15.48
2023-09-11T07:14:23.354Z,14.38
2023-09-11T07:16:50.609Z,16.10
2023-09-11T07:19:18.740Z,23.75
2023-09-11T07:21:45.634Z,15.05
2023-09-11T07:24:13.082Z,15.05
2023-09-11T07:26:40.254Z,15.13
2023-09-11T07:29:06.786Z,15.13
2023-09-11T07:31:33.843Z,13.52
2023-09-11T07:34:00.834Z,12.95
2023-09-11T07:36:28.645Z,13.32
2023-09-11T07:38:55.195Z,12.98
2023-09-11T07:41:22.615Z,12.38
2023-09-11T07:43:52.477Z,17.17
2023-09-11T07:46:23.890Z,12.32
2023-09-11T07:48:51.009Z,12.18
2023-09-11T07:51:17.946Z,18.63
2023-09-11T07:53:45.448Z,12.45
2023-09-11T07:56:13.211Z,12.77
2023-09-11T07:58:40.904Z,12.15
2023-09-11T08:01:07.827Z,15.05
2023-09-11T08:03:35.692Z,13.60
2023-09-11T08:06:05.356Z,11.88
2023-09-11T08:08:32.322Z,13.67
2023-09-11T08:11:00.198Z,11.25
2023-09-11T08:13:26.808Z,10.93
2023-09-11T08:15:53.633Z,13.43
2023-09-11T08:18:20.283Z,11.95
2023-09-11T08:20:47.828Z,11.73
2023-09-11T08:23:14.517Z,14.30
2023-09-11T08:25:41.012Z,14.10
2023-09-11T08:28:07.622Z,9.63
2023-09-11T08:30:34.634Z,10.35
2023-09-11T08:33:04.120Z,10.65
2023-09-11T08:35:31.408Z,10.85
2023-09-11T08:37:57.947Z,14.32
2023-09-11T08:40:30.985Z,10.95
2023-09-11T08:42:58.202Z,12.63
2023-09-11T08:45:26.882Z,12.90
2023-09-11T08:47:57.407Z,9.73
2023-09-11T08:50:28.997Z,9.98
2023-09-11T08:52:58.070Z,10.55
2023-09-11T08:55:26.085Z,12.63
2023-09-11T08:57:53.966Z,11.93
2023-09-11T09:00:21.123Z,10.85
2023-09-11T09:02:48.607Z,10.07
2023-09-11T09:05:16.390Z,10.50
2023-09-11T09:07:44.939Z,9.73
2023-09-11T09:10:12.665Z,9.45
2023-09-11T09:12:41.291Z,15.02
2023-09-11T09:15:08.635Z,10.15
2023-09-11T09:17:37.927Z,9.93
2023-09-11T09:20:05.471Z,9.20
2023-09-11T09:22:31.918Z,7.78
2023-09-11T09:24:58.410Z,7.50
2023-09-11T09:27:26.373Z,9.63
2023-09-11T09:29:52.943Z,9.82
2023-09-11T09:32:19.576Z,10.15
2023-09-11T09:34:54.907Z,9.27
2023-09-11T09:37:22.907Z,7.45
2023-09-11T09:39:50.086Z,9.05
2023-09-11T09:42:17.540Z,6.75
2023-09-11T09:44:54.636Z,9.55
2023-09-11T09:47:23.006Z,5.50
2023-09-11T09:49:51.046Z,5.53
2023-09-11T09:52:21.711Z,6.85
2023-09-11T09:54:50.220Z,9.20
2023-09-11T09:57:18.741Z,5.20
2023-09-11T09:59:51.310Z,5.97
2023-09-11T10:02:27.429Z,11.02
2023-09-11T10:05:00.430Z,9.35
2023-09-11T10:07:43.928Z,7.25
2023-09-11T10:10:21.502Z,8.02
2023-09-11T10:12:53.023Z,8.10
2023-09-11T10:15:21.602Z,6.57
2023-09-11T10:17:48.292Z,9.25
2023-09-11T10:20:14.907Z,7.53
2023-09-11T10:22:41.366Z,5.22
2023-09-11T10:25:07.882Z,5.10
2023-09-11T10:27:35.270Z,8.80
2023-09-11T10:30:05.526Z,10.55
2023-09-11T10:32:39.152Z,9.77
2023-09-11T10:35:06.653Z,7.00
2023-09-11T10:37:36.745Z,7.45
2023-09-11T10:40:04.961Z,6.28
2023-09-11T10:42:31.500Z,8.20
2023-09-11T10:44:57.995Z,5.50
2023-09-11T10:47:27.496Z,8.80
2023-09-11T10:49:57.938Z,7.82
2023-09-11T10:52:26.108Z,6.57
2023-09-11T10:54:52.729Z,7.63
2023-09-11T10:57:19.498Z,6.63
2023-09-11T10:59:46.211Z,6.47
2023-09-11T11:02:12.794Z,5.40
2023-09-11T11:04:42.616Z,13.77
2023-09-11T11:07:09.357Z,5.83
2023-09-11T11:09:38.138Z,7.07
2023-09-11T11:12:07.688Z,5.60
2023-09-11T11:14:35.140Z,4.90
2023-09-11T11:17:07.234Z,7.18
2023-09-11T11:19:36.351Z,8.00
2023-09-11T11:22:08.628Z,8.63
2023-09-11T11:24:51.772Z,6.68
2023-09-11T11:27:19.122Z,7.32
2023-09-11T11:29:45.669Z,6.20
2023-09-11T11:32:13.496Z,14.23
2023-09-11T11:34:42.496Z,8.57
2023-09-11T11:37:12.093Z,6.93
2023-09-11T11:39:38.878Z,7.35
2023-09-11T11:42:06.735Z,6.32
2023-09-11T11:44:34.718Z,7.47
2023-09-11T11:47:02.184Z,6.70
2023-09-11T11:49:29.353Z,6.88
2023-09-11T11:52:00.888Z,7.15
2023-09-11T11:54:28.665Z,7.57
2023-09-11T11:57:02.855Z,8.93
2023-09-11T11:59:31.958Z,6.75
2023-09-11T12:01:58.938Z,10.00
2023-09-11T12:04:45.255Z,9.55
2023-09-11T12:07:12.899Z,7.13
2023-09-11T12:09:40.625Z,14.25
2023-09-11T12:12:08.762Z,9.05
2023-09-11T12:14:37.301Z,8.38
2023-09-11T12:17:08.114Z,10.80
2023-09-11T12:22:00.950Z,8.90
2023-09-11T12:24:27.653Z,8.35
2023-09-11T12:26:54.376Z,7.50
2023-09-11T12:29:21.197Z,11.57
2023-09-11T12:31:47.814Z,9.25
2023-09-11T12:34:14.296Z,8.15
2023-09-11T12:36:43.253Z,10.05
2023-09-11T12:39:10.003Z,15.65
2023-09-11T12:41:36.585Z,12.23
2023-09-11T12:44:04.040Z,11.57
2023-09-11T12:46:30.625Z,10.20
2023-09-11T12:48:57.264Z,9.65
2023-09-11T12:51:23.888Z,13.65
2023-09-11T12:53:50.675Z,9.13
2023-09-11T12:56:21.852Z,11.00
2023-09-11T12:58:49.033Z,14.10
2023-09-11T13:01:15.660Z,13.40
2023-09-11T13:03:47.466Z,11.52
2023-09-11T13:06:14.747Z,14.43
2023-09-11T13:08:41.926Z,12.80
2023-09-11T13:11:08.629Z,15.88
2023-09-11T13:13:35.956Z,15.45
2023-09-11T13:16:04.317Z,15.02
2023-09-11T13:18:31.393Z,14.60
2023-09-11T13:20:58.173Z,15.57
2023-09-11T13:23:26.728Z,15.25
2023-09-11T13:25:53.622Z,20.02
2023-09-11T13:28:20.153Z,16.42
2023-09-11T13:30:46.572Z,19.77
2023-09-11T13:33:13.280Z,17.67
2023-09-11T13:35:39.876Z,15.20
2023-09-11T13:38:06.398Z,20.08
2023-09-11T13:40:33.018Z,17.65
2023-09-11T13:42:59.518Z,13.93
2023-09-11T13:45:28.413Z,21.20
2023-09-11T13:47:55.215Z,21.48
2023-09-11T13:50:21.968Z,17.88
2023-09-11T13:52:50.142Z,15.57
2023-09-11T13:55:16.754Z,17.27
2023-09-11T13:57:43.224Z,15.43
2023-09-11T14:00:10.719Z,19.38
2023-09-11T14:02:37.398Z,13.43
2023-09-11T14:05:04.658Z,15.18
2023-09-11T14:07:31.173Z,15.45
2023-09-11T14:09:57.803Z,20.75
2023-09-11T14:12:24.425Z,18.42
2023-09-11T14:14:50.978Z,24.38
2023-09-11T14:17:17.472Z,16.55
2023-09-11T14:19:43.980Z,17.23
2023-09-11T14:22:10.480Z,17.10
2023-09-11T14:24:36.961Z,18.10
2023-09-11T14:27:04.125Z,14.48
2023-09-11T14:29:30.633Z,16.02
2023-09-11T14:31:57.626Z,19.88
2023-09-11T14:34:24.250Z,18.27
2023-09-11T14:36:55.141Z,18.60
2023-09-11T14:39:30.639Z,21.23
2023-09-11T14:41:57.119Z,19.30
2023-09-11T14:44:23.550Z,16.90
2023-09-11T14:46:50.103Z,17.55
2023-09-11T14:49:16.482Z,15.40
2023-09-11T14:51:42.928Z,19.58
2023-09-11T14:54:09.455Z,15.55
2023-09-11T14:56:35.977Z,17.08
2023-09-11T14:59:02.440Z,18.08
2023-09-11T15:01:29.130Z,15.60
2023-09-11T15:03:58.963Z,14.98
2023-09-11T15:06:28.043Z,18.65
2023-09-11T15:08:57.834Z,15.65
2023-09-11T15:11:25.473Z,19.17
2023-09-11T15:13:52.015Z,14.80
2023-09-11T15:16:18.543Z,22.40
2023-09-11T15:18:45.357Z,16.45
2023-09-11T15:21:15.381Z,17.80
2023-09-11T15:23:42.175Z,13.98
2023-09-11T15:26:08.654Z,17.83
2023-09-11T15:28:35.229Z,15.57
2023-09-11T15:31:01.696Z,12.77
2023-09-11T15:33:28.503Z,14.98
2023-09-11T15:36:02.277Z,15.98
2023-09-11T15:38:29.919Z,16.15
2023-09-11T15:41:03.924Z,14.07
2023-09-11T15:43:42.030Z,15.52
2023-09-11T15:46:12.142Z,16.42
2023-09-11T15:48:40.565Z,18.67
2023-09-11T15:51:08.774Z,19.00
2023-09-11T15:53:37.865Z,16.27
2023-09-11T15:56:04.688Z,21.65
2023-09-11T15:58:31.623Z,18.52
2023-09-11T16:01:01.253Z,16.77
2023-09-11T16:03:27.902Z,14.93
2023-09-11T16:05:54.995Z,16.88
2023-09-11T16:08:21.654Z,16.80
2023-09-11T16:10:48.141Z,18.77
2023-09-11T16:13:14.900Z,16.67
2023-09-11T16:15:41.610Z,18.60
2023-09-11T16:18:08.437Z,17.92
2023-09-11T16:20:37.061Z,24.30
2023-09-11T16:23:04.970Z,14.23
2023-09-11T16:25:32.816Z,14.18
2023-09-11T16:27:59.808Z,17.67
2023-09-11T16:30:26.706Z,18.40
2023-09-11T16:32:56.363Z,15.75
2023-09-11T16:35:23.968Z,14.57
2023-09-11T16:37:51.014Z,14.07
2023-09-11T16:40:17.763Z,13.48
2023-09-11T16:42:45.919Z,16.63
2023-09-11T16:45:13.405Z,17.52
2023-09-11T16:47:40.365Z,17.55
2023-09-11T16:50:10.105Z,20.65
2023-09-11T16:52:36.844Z,17.95
2023-09-11T16:55:05.086Z,14.52
2023-09-11T16:57:31.570Z,19.08
2023-09-11T17:00:01.603Z,28.25
2023-09-11T17:02:28.517Z,25.75
2023-09-11T17:04:57.861Z,17.45
2023-09-11T17:07:24.868Z,13.85
2023-09-11T17:09:51.361Z,13.10
2023-09-11T17:12:18.684Z,18.13
2023-09-11T17:14:45.236Z,20.88
2023-09-11T17:17:11.694Z,17.52
2023-09-11T17:19:38.094Z,14.88
2023-09-11T17:22:04.755Z,31.20
2023-09-11T17:24:31.328Z,13.18
2023-09-11T17:26:57.934Z,21.70
2023-09-11T17:29:28.507Z,16.48
2023-09-11T17:31:55.206Z,20.38
2023-09-11T17:34:23.496Z,13.75
2023-09-11T17:36:51.416Z,20.25
2023-09-11T17:39:18.694Z,19.88
2023-09-11T17:41:45.903Z,18.90
2023-09-11T17:44:12.613Z,14.05
2023-09-11T17:46:39.280Z,19.90
2023-09-11T17:49:05.890Z,14.95
2023-09-11T17:51:32.418Z,14.30
2023-09-11T17:53:58.919Z,14.18
2023-09-11T17:56:25.426Z,15.27
2023-09-11T17:58:53.130Z,14.02
2023-09-11T18:01:19.762Z,15.23
2023-09-11T18:03:47.249Z,15.43
2023-09-11T18:06:13.979Z,17.35
2023-09-11T18:08:40.837Z,22.23
2023-09-11T18:11:07.535Z,19.88
2023-09-11T18:13:34.015Z,16.90
2023-09-11T18:16:01.243Z,15.88
2023-09-11T18:18:27.831Z,14.20
2023-09-11T18:20:54.538Z,14.77
2023-09-11T18:23:21.101Z,14.82
2023-09-11T18:25:48.639Z,16.42
2023-09-11T18:28:15.244Z,17.08
2023-09-11T18:30:42.811Z,14.63
2023-09-11T18:33:09.525Z,13.85
2023-09-11T18:35:36.057Z,14.13
2023-09-11T18:38:03.099Z,14.18
2023-09-11T18:40:30.867Z,12.00
2023-09-11T18:42:58.052Z,12.60
2023-09-11T18:45:24.885Z,12.35
2023-09-11T18:47:54.184Z,14.15
2023-09-11T18:50:20.667Z,13.48
2023-09-11T18:52:47.271Z,16.85
2023-09-11T18:55:13.786Z,18.63
2023-09-11T18:57:40.304Z,13.40
2023-09-11T19:00:07.325Z,14.85
2023-09-11T19:02:34.140Z,19.65
2023-09-11T19:05:00.728Z,13.57
2023-09-11T19:07:27.320Z,12.50
2023-09-11T19:09:54.073Z,16.30
2023-09-11T19:12:20.579Z,14.70
2023-09-11T19:14:47.308Z,16.17
2023-09-11T19:17:15.716Z,21.30
2023-09-11T19:19:42.268Z,35.35
2023-09-11T19:22:10.574Z,20.00
2023-09-11T19:24:37.177Z,16.70
2023-09-11T19:27:03.921Z,15.82
2023-09-11T19:29:30.445Z,14.55
2023-09-11T19:31:57.263Z,16.02
2023-09-11T19:34:24.089Z,17.48
2023-09-11T19:36:50.636Z,27.58
2023-09-11T19:39:18.825Z,22.98
2023-09-11T19:41:45.394Z,17.58
2023-09-11T19:44:13.572Z,21.77
2023-09-11T19:46:40.962Z,17.85
2023-09-11T19:49:07.619Z,19.20
2023-09-11T19:51:34.582Z,18.92
2023-09-11T19:54:01.106Z,23.23
2023-09-11T19:56:27.676Z,26.52
2023-09-11T19:59:06.330Z,24.75
2023-09-11T20:01:34.616Z,24.65
2023-09-11T20:04:02.908Z,20.55
2023-09-11T20:06:29.557Z,20.85
2023-09-11T20:08:56.087Z,23.90
2023-09-11T20:11:23.574Z,23.85
2023-09-11T20:13:50.038Z,22.95
2023-09-11T20:16:16.574Z,23.55
2023-09-11T20:18:43.484Z,31.45
2023-09-11T20:21:10.273Z,25.23
2023-09-11T20:23:36.822Z,23.48
2023-09-11T20:26:03.839Z,27.55
2023-09-11T20:28:30.510Z,24.05
2023-09-11T20:30:57.043Z,25.63
2023-09-11T20:33:23.583Z,25.10
2023-09-11T20:35:53.173Z,30.52
2023-09-11T20:38:22.646Z,47.83
2023-09-11T20:40:52.426Z,30.00
2023-09-11T20:43:18.919Z,27.15
2023-09-11T20:45:45.475Z,26.27
2023-09-11T20:48:12.065Z,24.65
2023-09-11T20:50:38.542Z,22.70
2023-09-11T20:53:05.034Z,23.10
2023-09-11T20:55:31.856Z,23.63
2023-09-11T20:57:58.578Z,24.05
2023-09-11T21:00:25.062Z,22.60
2023-09-11T21:02:51.804Z,22.50
2023-09-11T21:05:18.515Z,21.60
2023-09-11T21:07:45.919Z,23.98
2023-09-11T21:10:14.230Z,27.08
2023-09-11T21:12:54.664Z,26.30
2023-09-11T21:15:22.598Z,28.35
2023-09-11T21:17:50.338Z,29.60
2023-09-11T21:20:17.904Z,29.35
2023-09-11T21:22:44.513Z,30.33
2023-09-11T21:25:12.515Z,28.65
2023-09-11T21:27:45.248Z,28.48
2023-09-11T21:30:12.057Z,29.75
2023-09-11T21:32:38.582Z,30.83
2023-09-11T21:35:08.061Z,29.40
2023-09-11T21:37:34.582Z,30.95
2023-09-11T21:40:01.041Z,31.67
2023-09-11T21:42:27.585Z,29.77
2023-09-11T21:44:54.207Z,29.35
2023-09-11T21:47:20.693Z,29.73
2023-09-11T21:49:47.210Z,30.42
2023-09-11T21:52:13.698Z,30.77
2023-09-11T21:54:40.287Z,32.45
2023-09-11T21:57:07.592Z,33.17
2023-09-11T21:59:35.024Z,33.47
2023-09-11T22:02:01.601Z,30.35
2023-09-11T22:04:28.182Z,31.17
2023-09-11T22:06:54.704Z,30.05
2023-09-11T22:09:21.615Z,34.33
2023-09-11T22:11:48.384Z,32.85
2023-09-11T22:14:16.032Z,34.15
2023-09-11T22:16:43.382Z,35.80
2023-09-11T22:19:10.252Z,41.50
2023-09-11T22:21:36.783Z,33.38
2023-09-11T22:24:04.322Z,30.13
2023-09-11T22:26:30.894Z,35.00
2023-09-11T22:29:00.534Z,34.67
2023-09-11T22:31:27.209Z,35.42
2023-09-11T22:33:53.806Z,36.58
2023-09-11T22:36:20.370Z,43.58
2023-09-11T22:38:46.875Z,35.55
2023-09-11T22:41:16.402Z,31.55
2023-09-11T22:43:43.005Z,34.47
2023-09-11T22:46:09.695Z,41.47
2023-09-11T22:48:36.263Z,37.65
2023-09-11T22:51:04.530Z,36.13
2023-09-11T22:53:31.806Z,35.67
2023-09-11T22:56:01.963Z,34.05
2023-09-11T22:58:28.702Z,36.60
2023-09-11T23:00:55.369Z,36.28
2023-09-11T23:03:42.602Z,41.55
2023-09-11T23:06:10.502Z,39.00
2023-09-11T23:08:37.000Z,38.50
2023-09-11T23:11:03.441Z,42.53
2023-09-11T23:13:29.937Z,37.70
2023-09-11T23:15:58.672Z,41.55
2023-09-11T23:18:25.311Z,40.78
2023-09-11T23:20:51.880Z,41.17
2023-09-11T23:23:18.746Z,43.20
2023-09-11T23:25:48.034Z,38.63
2023-09-11T23:28:16.264Z,44.22
2023-09-11T23:30:44.196Z,43.03
2023-09-11T23:33:11.749Z,37.63
2023-09-11T23:35:39.009Z,41.40
2023-09-11T23:38:06.196Z,44.42
2023-09-11T23:40:32.938Z,43.70
2023-09-11T23:42:59.699Z,44.13
2023-09-11T23:45:26.403Z,46.65
2023-09-11T23:47:52.965Z,46.95
2023-09-11T23:50:19.506Z,44.72
2023-09-11T23:52:46.496Z,45.67
2023-09-11T23:55:12.965Z,41.42
2023-09-11T23:57:39.567Z,46.85
